ePrivacy and GPDR Cookie Consent by Cookie Consent
EmailTwitter


Observations de surface / Québec / CYUL (71627)

Régions: Québec | Canada | États-Unis | Europe | France | UK | Ailleurs
Station
Affichage
Infos & localisation pour CYUL (71627) | Aide pour décoder les METARs

Observations prises le 2022-11-26 à 22H00 UTC à MONTREAL INTL A, QB (CYUL)

Etat du ciel: quelques nuages.

Température: 8.0 Celsius

Point de rosée: 1.0 Celsius

Humidité relative: 61%

Facteur vent 4.

Vents: Sud-ouest à 30 km/h ou 16 noeuds.

Pression au niveau moyen de la mer: 100.77 kilopascals.

Calage altimétrique: 100.74 kilopascals ou 29.75 pouces de mercure.

Visibilité horizontale: 15.00 milles terrestres ou 24.00 kilomètres.

Observation METAR:

CYUL 262200Z 23016KT 15SM FEW250 08/01 A2975 RMK CI1 CI TR SLP077=